sensor_id;sensor_type;location;lat;lon;timestamp;P1;durP1;ratioP1;P2;durP2;ratioP2
23668;SDS011;12011;47.422;15.018;2023-08-06T00:00:59;0.22;;;0.22;;
23668;SDS011;12011;47.422;15.018;2023-08-06T00:03:28;0.24;;;0.24;;
23668;SDS011;12011;47.422;15.018;2023-08-06T00:05:58;0.25;;;0.25;;
23668;SDS011;12011;47.422;15.018;2023-08-06T00:08:27;0.21;;;0.20;;
23668;SDS011;12011;47.422;15.018;2023-08-06T00:11:00;0.36;;;0.35;;
23668;SDS011;12011;47.422;15.018;2023-08-06T00:13:29;0.32;;;0.31;;
23668;SDS011;12011;47.422;15.018;2023-08-06T00:16:07;0.36;;;0.35;;
23668;SDS011;12011;47.422;15.018;2023-08-06T00:18:38;0.26;;;0.25;;
23668;SDS011;12011;47.422;15.018;2023-08-06T00:21:09;0.43;;;0.43;;
23668;SDS011;12011;47.422;15.018;2023-08-06T00:23:39;0.37;;;0.37;;
23668;SDS011;12011;47.422;15.018;2023-08-06T00:26:11;0.35;;;0.35;;
23668;SDS011;12011;47.422;15.018;2023-08-06T00:28:41;0.38;;;0.37;;
23668;SDS011;12011;47.422;15.018;2023-08-06T00:31:10;0.40;;;0.39;;
23668;SDS011;12011;47.422;15.018;2023-08-06T00:33:40;0.30;;;0.30;;
23668;SDS011;12011;47.422;15.018;2023-08-06T00:36:10;0.15;;;0.15;;
23668;SDS011;12011;47.422;15.018;2023-08-06T00:38:40;0.21;;;0.20;;
23668;SDS011;12011;47.422;15.018;2023-08-06T00:41:12;0.21;;;0.20;;
23668;SDS011;12011;47.422;15.018;2023-08-06T00:43:46;0.19;;;0.19;;
23668;SDS011;12011;47.422;15.018;2023-08-06T00:46:16;0.17;;;0.16;;
23668;SDS011;12011;47.422;15.018;2023-08-06T00:48:46;0.22;;;0.22;;
23668;SDS011;12011;47.422;15.018;2023-08-06T00:51:16;0.21;;;0.21;;
23668;SDS011;12011;47.422;15.018;2023-08-06T00:53:46;0.32;;;0.32;;
23668;SDS011;12011;47.422;15.018;2023-08-06T00:56:19;0.35;;;0.35;;
23668;SDS011;12011;47.422;15.018;2023-08-06T00:58:49;0.39;;;0.38;;
23668;SDS011;12011;47.422;15.018;2023-08-06T01:01:22;0.36;;;0.36;;
23668;SDS011;12011;47.422;15.018;2023-08-06T01:03:52;0.25;;;0.25;;
23668;SDS011;12011;47.422;15.018;2023-08-06T01:06:24;0.33;;;0.32;;
23668;SDS011;12011;47.422;15.018;2023-08-06T01:09:12;0.31;;;0.31;;
23668;SDS011;12011;47.422;15.018;2023-08-06T01:12:09;0.33;;;0.33;;
23668;SDS011;12011;47.422;15.018;2023-08-06T01:14:57;0.32;;;0.32;;
23668;SDS011;12011;47.422;15.018;2023-08-06T01:17:35;0.27;;;0.26;;
23668;SDS011;12011;47.422;15.018;2023-08-06T01:20:06;0.32;;;0.32;;
23668;SDS011;12011;47.422;15.018;2023-08-06T01:22:40;0.23;;;0.23;;
23668;SDS011;12011;47.422;15.018;2023-08-06T01:25:10;0.29;;;0.28;;
23668;SDS011;12011;47.422;15.018;2023-08-06T01:27:44;0.33;;;0.33;;
23668;SDS011;12011;47.422;15.018;2023-08-06T01:30:17;0.22;;;0.21;;
23668;SDS011;12011;47.422;15.018;2023-08-06T01:32:56;0.19;;;0.18;;
23668;SDS011;12011;47.422;15.018;2023-08-06T01:35:29;0.21;;;0.20;;
23668;SDS011;12011;47.422;15.018;2023-08-06T01:38:03;0.36;;;0.36;;
23668;SDS011;12011;47.422;15.018;2023-08-06T01:40:33;0.34;;;0.33;;
23668;SDS011;12011;47.422;15.018;2023-08-06T01:43:03;0.33;;;0.32;;
23668;SDS011;12011;47.422;15.018;2023-08-06T01:45:33;0.16;;;0.16;;
23668;SDS011;12011;47.422;15.018;2023-08-06T01:48:03;0.18;;;0.17;;
23668;SDS011;12011;47.422;15.018;2023-08-06T01:50:33;0.18;;;0.17;;
23668;SDS011;12011;47.422;15.018;2023-08-06T01:53:07;0.16;;;0.16;;
23668;SDS011;12011;47.422;15.018;2023-08-06T01:55:37;0.20;;;0.20;;
23668;SDS011;12011;47.422;15.018;2023-08-06T01:58:14;0.19;;;0.19;;
23668;SDS011;12011;47.422;15.018;2023-08-06T02:00:47;0.25;;;0.25;;
23668;SDS011;12011;47.422;15.018;2023-08-06T02:03:26;0.31;;;0.31;;
23668;SDS011;12011;47.422;15.018;2023-08-06T02:05:56;0.33;;;0.33;;
23668;SDS011;12011;47.422;15.018;2023-08-06T02:08:29;0.41;;;0.41;;
23668;SDS011;12011;47.422;15.018;2023-08-06T02:10:59;0.37;;;0.37;;
23668;SDS011;12011;47.422;15.018;2023-08-06T02:13:30;0.34;;;0.34;;
23668;SDS011;12011;47.422;15.018;2023-08-06T02:16:00;0.30;;;0.30;;
23668;SDS011;12011;47.422;15.018;2023-08-06T02:18:30;0.43;;;0.43;;
23668;SDS011;12011;47.422;15.018;2023-08-06T02:21:01;0.31;;;0.31;;
23668;SDS011;12011;47.422;15.018;2023-08-06T02:23:35;0.41;;;0.41;;
23668;SDS011;12011;47.422;15.018;2023-08-06T02:26:05;0.32;;;0.32;;
23668;SDS011;12011;47.422;15.018;2023-08-06T02:28:35;0.41;;;0.41;;
23668;SDS011;12011;47.422;15.018;2023-08-06T02:31:05;0.38;;;0.38;;
23668;SDS011;12011;47.422;15.018;2023-08-06T02:33:36;0.29;;;0.29;;
23668;SDS011;12011;47.422;15.018;2023-08-06T02:36:06;0.36;;;0.36;;
23668;SDS011;12011;47.422;15.018;2023-08-06T02:38:41;0.28;;;0.28;;
23668;SDS011;12011;47.422;15.018;2023-08-06T02:41:11;0.20;;;0.20;;
23668;SDS011;12011;47.422;15.018;2023-08-06T02:43:42;0.32;;;0.32;;
23668;SDS011;12011;47.422;15.018;2023-08-06T02:46:12;0.27;;;0.27;;
23668;SDS011;12011;47.422;15.018;2023-08-06T02:48:41;0.23;;;0.23;;
23668;SDS011;12011;47.422;15.018;2023-08-06T02:51:12;0.36;;;0.36;;
23668;SDS011;12011;47.422;15.018;2023-08-06T02:53:44;0.21;;;0.21;;
23668;SDS011;12011;47.422;15.018;2023-08-06T02:56:18;0.27;;;0.27;;
23668;SDS011;12011;47.422;15.018;2023-08-06T02:59:06;0.25;;;0.25;;
23668;SDS011;12011;47.422;15.018;2023-08-06T03:01:48;0.41;;;0.41;;
23668;SDS011;12011;47.422;15.018;2023-08-06T03:04:25;0.32;;;0.32;;
23668;SDS011;12011;47.422;15.018;2023-08-06T03:06:54;0.39;;;0.39;;
23668;SDS011;12011;47.422;15.018;2023-08-06T03:09:34;0.34;;;0.34;;
23668;SDS011;12011;47.422;15.018;2023-08-06T03:12:05;0.43;;;0.43;;
23668;SDS011;12011;47.422;15.018;2023-08-06T03:14:38;0.34;;;0.34;;
23668;SDS011;12011;47.422;15.018;2023-08-06T03:17:09;0.38;;;0.38;;
23668;SDS011;12011;47.422;15.018;2023-08-06T03:19:39;0.46;;;0.46;;
23668;SDS011;12011;47.422;15.018;2023-08-06T03:22:10;0.45;;;0.44;;
23668;SDS011;12011;47.422;15.018;2023-08-06T03:24:43;0.39;;;0.39;;
23668;SDS011;12011;47.422;15.018;2023-08-06T03:27:13;0.37;;;0.36;;
23668;SDS011;12011;47.422;15.018;2023-08-06T03:29:43;0.41;;;0.41;;
23668;SDS011;12011;47.422;15.018;2023-08-06T03:32:13;0.30;;;0.30;;
23668;SDS011;12011;47.422;15.018;2023-08-06T03:34:43;0.46;;;0.46;;
23668;SDS011;12011;47.422;15.018;2023-08-06T03:37:15;0.55;;;0.54;;
23668;SDS011;12011;47.422;15.018;2023-08-06T03:39:48;0.36;;;0.36;;
23668;SDS011;12011;47.422;15.018;2023-08-06T03:42:18;0.27;;;0.27;;
23668;SDS011;12011;47.422;15.018;2023-08-06T03:44:48;0.33;;;0.32;;
23668;SDS011;12011;47.422;15.018;2023-08-06T03:47:18;0.31;;;0.31;;
23668;SDS011;12011;47.422;15.018;2023-08-06T03:49:50;0.29;;;0.29;;
23668;SDS011;12011;47.422;15.018;2023-08-06T03:52:21;0.31;;;0.31;;
23668;SDS011;12011;47.422;15.018;2023-08-06T03:54:53;0.38;;;0.38;;
23668;SDS011;12011;47.422;15.018;2023-08-06T03:57:23;0.38;;;0.38;;
23668;SDS011;12011;47.422;15.018;2023-08-06T03:59:53;0.34;;;0.34;;
23668;SDS011;12011;47.422;15.018;2023-08-06T04:02:25;0.24;;;0.24;;
23668;SDS011;12011;47.422;15.018;2023-08-06T04:04:55;0.35;;;0.34;;
23668;SDS011;12011;47.422;15.018;2023-08-06T04:07:24;0.31;;;0.31;;
23668;SDS011;12011;47.422;15.018;2023-08-06T04:09:57;0.32;;;0.32;;
23668;SDS011;12011;47.422;15.018;2023-08-06T04:12:28;0.37;;;0.37;;
23668;SDS011;12011;47.422;15.018;2023-08-06T04:15:02;0.38;;;0.38;;
23668;SDS011;12011;47.422;15.018;2023-08-06T04:17:34;0.34;;;0.34;;
23668;SDS011;12011;47.422;15.018;2023-08-06T04:20:04;0.29;;;0.29;;
23668;SDS011;12011;47.422;15.018;2023-08-06T04:22:36;0.26;;;0.26;;
23668;SDS011;12011;47.422;15.018;2023-08-06T04:25:09;0.31;;;0.31;;
23668;SDS011;12011;47.422;15.018;2023-08-06T04:27:38;0.38;;;0.38;;
23668;SDS011;12011;47.422;15.018;2023-08-06T04:30:10;0.40;;;0.40;;
23668;SDS011;12011;47.422;15.018;2023-08-06T04:32:41;0.67;;;0.67;;
23668;SDS011;12011;47.422;15.018;2023-08-06T04:35:11;0.46;;;0.46;;
23668;SDS011;12011;47.422;15.018;2023-08-06T04:37:41;0.47;;;0.47;;
23668;SDS011;12011;47.422;15.018;2023-08-06T04:40:13;0.54;;;0.54;;
23668;SDS011;12011;47.422;15.018;2023-08-06T04:42:43;0.52;;;0.52;;
23668;SDS011;12011;47.422;15.018;2023-08-06T04:45:13;0.51;;;0.51;;
23668;SDS011;12011;47.422;15.018;2023-08-06T04:47:43;0.44;;;0.44;;
23668;SDS011;12011;47.422;15.018;2023-08-06T04:50:16;0.48;;;0.48;;
23668;SDS011;12011;47.422;15.018;2023-08-06T04:52:46;0.50;;;0.50;;
23668;SDS011;12011;47.422;15.018;2023-08-06T04:55:18;0.48;;;0.48;;
23668;SDS011;12011;47.422;15.018;2023-08-06T04:57:48;0.30;;;0.30;;
23668;SDS011;12011;47.422;15.018;2023-08-06T05:00:17;0.38;;;0.38;;
23668;SDS011;12011;47.422;15.018;2023-08-06T05:02:47;0.72;;;0.72;;
23668;SDS011;12011;47.422;15.018;2023-08-06T05:05:17;0.44;;;0.44;;
23668;SDS011;12011;47.422;15.018;2023-08-06T05:07:49;0.46;;;0.46;;
23668;SDS011;12011;47.422;15.018;2023-08-06T05:10:21;0.59;;;0.59;;
23668;SDS011;12011;47.422;15.018;2023-08-06T05:12:54;0.49;;;0.49;;
23668;SDS011;12011;47.422;15.018;2023-08-06T05:15:24;0.51;;;0.51;;
23668;SDS011;12011;47.422;15.018;2023-08-06T05:17:53;0.49;;;0.49;;
23668;SDS011;12011;47.422;15.018;2023-08-06T05:20:23;0.45;;;0.45;;
23668;SDS011;12011;47.422;15.018;2023-08-06T05:22:53;0.51;;;0.51;;
23668;SDS011;12011;47.422;15.018;2023-08-06T05:25:25;0.52;;;0.52;;
23668;SDS011;12011;47.422;15.018;2023-08-06T05:27:55;0.50;;;0.50;;
23668;SDS011;12011;47.422;15.018;2023-08-06T05:30:25;0.52;;;0.52;;
23668;SDS011;12011;47.422;15.018;2023-08-06T05:32:55;0.39;;;0.39;;
23668;SDS011;12011;47.422;15.018;2023-08-06T05:35:24;0.46;;;0.46;;
23668;SDS011;12011;47.422;15.018;2023-08-06T05:37:54;0.40;;;0.40;;
23668;SDS011;12011;47.422;15.018;2023-08-06T05:40:26;0.34;;;0.34;;
23668;SDS011;12011;47.422;15.018;2023-08-06T05:42:56;0.31;;;0.31;;
23668;SDS011;12011;47.422;15.018;2023-08-06T05:45:26;0.40;;;0.40;;
23668;SDS011;12011;47.422;15.018;2023-08-06T05:47:56;0.36;;;0.36;;
23668;SDS011;12011;47.422;15.018;2023-08-06T05:50:26;0.45;;;0.45;;
23668;SDS011;12011;47.422;15.018;2023-08-06T05:52:55;0.43;;;0.43;;
23668;SDS011;12011;47.422;15.018;2023-08-06T05:55:27;0.37;;;0.37;;
23668;SDS011;12011;47.422;15.018;2023-08-06T05:57:58;0.39;;;0.39;;
23668;SDS011;12011;47.422;15.018;2023-08-06T06:00:27;0.50;;;0.50;;
23668;SDS011;12011;47.422;15.018;2023-08-06T06:02:57;0.56;;;0.56;;
23668;SDS011;12011;47.422;15.018;2023-08-06T06:05:27;0.74;;;0.74;;
23668;SDS011;12011;47.422;15.018;2023-08-06T06:07:56;0.92;;;0.92;;
23668;SDS011;12011;47.422;15.018;2023-08-06T06:10:28;0.78;;;0.78;;
23668;SDS011;12011;47.422;15.018;2023-08-06T06:12:58;0.81;;;0.81;;
23668;SDS011;12011;47.422;15.018;2023-08-06T06:15:28;0.88;;;0.88;;
23668;SDS011;12011;47.422;15.018;2023-08-06T06:17:57;0.77;;;0.77;;
23668;SDS011;12011;47.422;15.018;2023-08-06T06:20:27;0.54;;;0.54;;
23668;SDS011;12011;47.422;15.018;2023-08-06T06:22:56;0.79;;;0.78;;
23668;SDS011;12011;47.422;15.018;2023-08-06T06:25:29;0.66;;;0.66;;
23668;SDS011;12011;47.422;15.018;2023-08-06T06:28:01;0.97;;;0.97;;
23668;SDS011;12011;47.422;15.018;2023-08-06T06:30:31;1.08;;;1.08;;
23668;SDS011;12011;47.422;15.018;2023-08-06T06:33:01;0.91;;;0.91;;
23668;SDS011;12011;47.422;15.018;2023-08-06T06:35:31;0.97;;;0.97;;
23668;SDS011;12011;47.422;15.018;2023-08-06T06:38:00;0.79;;;0.78;;
23668;SDS011;12011;47.422;15.018;2023-08-06T06:40:32;0.74;;;0.73;;
23668;SDS011;12011;47.422;15.018;2023-08-06T06:43:03;0.74;;;0.74;;
23668;SDS011;12011;47.422;15.018;2023-08-06T06:45:32;0.62;;;0.62;;
23668;SDS011;12011;47.422;15.018;2023-08-06T06:48:02;0.50;;;0.49;;
23668;SDS011;12011;47.422;15.018;2023-08-06T06:50:32;0.67;;;0.66;;
23668;SDS011;12011;47.422;15.018;2023-08-06T06:53:04;0.54;;;0.54;;
23668;SDS011;12011;47.422;15.018;2023-08-06T06:55:37;0.49;;;0.49;;
23668;SDS011;12011;47.422;15.018;2023-08-06T06:58:07;0.63;;;0.63;;
23668;SDS011;12011;47.422;15.018;2023-08-06T07:00:36;0.68;;;0.68;;
23668;SDS011;12011;47.422;15.018;2023-08-06T07:03:07;0.63;;;0.63;;
23668;SDS011;12011;47.422;15.018;2023-08-06T07:05:37;0.71;;;0.71;;
23668;SDS011;12011;47.422;15.018;2023-08-06T07:08:06;0.62;;;0.62;;
23668;SDS011;12011;47.422;15.018;2023-08-06T07:10:40;0.73;;;0.73;;
23668;SDS011;12011;47.422;15.018;2023-08-06T07:13:10;0.93;;;0.93;;
23668;SDS011;12011;47.422;15.018;2023-08-06T07:15:42;1.13;;;1.13;;
23668;SDS011;12011;47.422;15.018;2023-08-06T07:18:11;0.64;;;0.64;;
23668;SDS011;12011;47.422;15.018;2023-08-06T07:20:41;0.53;;;0.53;;
23668;SDS011;12011;47.422;15.018;2023-08-06T07:23:10;0.72;;;0.72;;
23668;SDS011;12011;47.422;15.018;2023-08-06T07:25:42;0.76;;;0.76;;
23668;SDS011;12011;47.422;15.018;2023-08-06T07:28:12;1.52;;;1.52;;
23668;SDS011;12011;47.422;15.018;2023-08-06T07:30:42;2.34;;;2.33;;
23668;SDS011;12011;47.422;15.018;2023-08-06T07:33:13;1.76;;;1.74;;
23668;SDS011;12011;47.422;15.018;2023-08-06T07:35:42;0.98;;;0.97;;
23668;SDS011;12011;47.422;15.018;2023-08-06T07:38:12;1.18;;;1.17;;
23668;SDS011;12011;47.422;15.018;2023-08-06T07:40:44;1.12;;;1.11;;
23668;SDS011;12011;47.422;15.018;2023-08-06T07:43:14;1.38;;;1.37;;
23668;SDS011;12011;47.422;15.018;2023-08-06T07:45:44;1.31;;;1.30;;
23668;SDS011;12011;47.422;15.018;2023-08-06T07:48:13;0.77;;;0.77;;
23668;SDS011;12011;47.422;15.018;2023-08-06T07:50:43;1.01;;;1.01;;
23668;SDS011;12011;47.422;15.018;2023-08-06T07:53:16;0.84;;;0.84;;
23668;SDS011;12011;47.422;15.018;2023-08-06T07:55:50;0.72;;;0.72;;
23668;SDS011;12011;47.422;15.018;2023-08-06T07:58:20;0.50;;;0.50;;
23668;SDS011;12011;47.422;15.018;2023-08-06T08:00:52;0.45;;;0.45;;
23668;SDS011;12011;47.422;15.018;2023-08-06T08:03:21;0.43;;;0.43;;
23668;SDS011;12011;47.422;15.018;2023-08-06T08:05:54;0.92;;;0.92;;
23668;SDS011;12011;47.422;15.018;2023-08-06T08:08:25;1.57;;;1.57;;
23668;SDS011;12011;47.422;15.018;2023-08-06T08:10:58;0.93;;;0.93;;
23668;SDS011;12011;47.422;15.018;2023-08-06T08:13:28;1.07;;;1.07;;
23668;SDS011;12011;47.422;15.018;2023-08-06T08:15:58;1.04;;;1.04;;
23668;SDS011;12011;47.422;15.018;2023-08-06T08:18:28;0.87;;;0.87;;
23668;SDS011;12011;47.422;15.018;2023-08-06T08:20:58;0.55;;;0.55;;
23668;SDS011;12011;47.422;15.018;2023-08-06T08:23:28;0.61;;;0.61;;
23668;SDS011;12011;47.422;15.018;2023-08-06T08:26:01;0.52;;;0.52;;
23668;SDS011;12011;47.422;15.018;2023-08-06T08:28:31;0.58;;;0.58;;
23668;SDS011;12011;47.422;15.018;2023-08-06T08:31:01;0.88;;;0.88;;
23668;SDS011;12011;47.422;15.018;2023-08-06T08:33:30;0.56;;;0.56;;
23668;SDS011;12011;47.422;15.018;2023-08-06T08:36:00;0.57;;;0.57;;
23668;SDS011;12011;47.422;15.018;2023-08-06T08:38:30;0.55;;;0.55;;
23668;SDS011;12011;47.422;15.018;2023-08-06T08:41:02;0.58;;;0.58;;
23668;SDS011;12011;47.422;15.018;2023-08-06T08:43:32;0.68;;;0.68;;
23668;SDS011;12011;47.422;15.018;2023-08-06T08:46:02;0.51;;;0.51;;
23668;SDS011;12011;47.422;15.018;2023-08-06T08:48:37;0.62;;;0.62;;
23668;SDS011;12011;47.422;15.018;2023-08-06T08:51:08;0.75;;;0.75;;
23668;SDS011;12011;47.422;15.018;2023-08-06T08:53:39;0.92;;;0.92;;
23668;SDS011;12011;47.422;15.018;2023-08-06T08:56:11;0.80;;;0.80;;
23668;SDS011;12011;47.422;15.018;2023-08-06T08:58:42;0.83;;;0.83;;
23668;SDS011;12011;47.422;15.018;2023-08-06T09:01:12;0.91;;;0.91;;
23668;SDS011;12011;47.422;15.018;2023-08-06T09:03:43;0.87;;;0.87;;
23668;SDS011;12011;47.422;15.018;2023-08-06T09:06:14;0.70;;;0.70;;
23668;SDS011;12011;47.422;15.018;2023-08-06T09:08:47;0.70;;;0.70;;
23668;SDS011;12011;47.422;15.018;2023-08-06T09:11:32;0.72;;;0.72;;
23668;SDS011;12011;47.422;15.018;2023-08-06T09:14:14;0.78;;;0.78;;
23668;SDS011;12011;47.422;15.018;2023-08-06T09:16:44;0.52;;;0.52;;
23668;SDS011;12011;47.422;15.018;2023-08-06T09:19:14;0.56;;;0.56;;
23668;SDS011;12011;47.422;15.018;2023-08-06T09:21:44;0.48;;;0.48;;
23668;SDS011;12011;47.422;15.018;2023-08-06T09:24:16;0.57;;;0.57;;
23668;SDS011;12011;47.422;15.018;2023-08-06T09:26:50;0.38;;;0.38;;
23668;SDS011;12011;47.422;15.018;2023-08-06T09:29:20;0.56;;;0.56;;
23668;SDS011;12011;47.422;15.018;2023-08-06T09:31:50;0.37;;;0.37;;
23668;SDS011;12011;47.422;15.018;2023-08-06T09:34:21;0.51;;;0.51;;
23668;SDS011;12011;47.422;15.018;2023-08-06T09:36:52;0.48;;;0.48;;
23668;SDS011;12011;47.422;15.018;2023-08-06T09:39:26;0.70;;;0.70;;
23668;SDS011;12011;47.422;15.018;2023-08-06T09:42:01;0.75;;;0.75;;
23668;SDS011;12011;47.422;15.018;2023-08-06T09:44:32;0.91;;;0.91;;
23668;SDS011;12011;47.422;15.018;2023-08-06T09:47:04;0.92;;;0.92;;
23668;SDS011;12011;47.422;15.018;2023-08-06T09:49:42;0.95;;;0.95;;
23668;SDS011;12011;47.422;15.018;2023-08-06T09:52:12;0.74;;;0.74;;
23668;SDS011;12011;47.422;15.018;2023-08-06T09:54:44;0.53;;;0.53;;
23668;SDS011;12011;47.422;15.018;2023-08-06T09:57:17;0.58;;;0.58;;
23668;SDS011;12011;47.422;15.018;2023-08-06T09:59:48;0.55;;;0.55;;
23668;SDS011;12011;47.422;15.018;2023-08-06T10:02:21;0.50;;;0.50;;
23668;SDS011;12011;47.422;15.018;2023-08-06T10:04:56;0.49;;;0.49;;
23668;SDS011;12011;47.422;15.018;2023-08-06T10:07:27;0.88;;;0.88;;
23668;SDS011;12011;47.422;15.018;2023-08-06T10:10:00;0.67;;;0.67;;
23668;SDS011;12011;47.422;15.018;2023-08-06T10:12:35;0.41;;;0.41;;
23668;SDS011;12011;47.422;15.018;2023-08-06T10:15:13;0.45;;;0.45;;
23668;SDS011;12011;47.422;15.018;2023-08-06T10:17:46;0.58;;;0.58;;
23668;SDS011;12011;47.422;15.018;2023-08-06T10:20:20;0.57;;;0.56;;
23668;SDS011;12011;47.422;15.018;2023-08-06T10:23:01;0.70;;;0.70;;
23668;SDS011;12011;47.422;15.018;2023-08-06T10:25:33;0.53;;;0.52;;
23668;SDS011;12011;47.422;15.018;2023-08-06T10:28:12;0.63;;;0.62;;
23668;SDS011;12011;47.422;15.018;2023-08-06T10:30:45;0.75;;;0.74;;
23668;SDS011;12011;47.422;15.018;2023-08-06T10:33:19;0.56;;;0.56;;
23668;SDS011;12011;47.422;15.018;2023-08-06T10:35:50;0.60;;;0.60;;
23668;SDS011;12011;47.422;15.018;2023-08-06T10:38:21;0.48;;;0.48;;
23668;SDS011;12011;47.422;15.018;2023-08-06T10:41:01;0.58;;;0.58;;
23668;SDS011;12011;47.422;15.018;2023-08-06T10:43:39;0.42;;;0.42;;
23668;SDS011;12011;47.422;15.018;2023-08-06T10:46:11;0.48;;;0.48;;
23668;SDS011;12011;47.422;15.018;2023-08-06T10:48:51;0.38;;;0.38;;
23668;SDS011;12011;47.422;15.018;2023-08-06T10:51:22;0.49;;;0.49;;
23668;SDS011;12011;47.422;15.018;2023-08-06T10:53:53;0.48;;;0.48;;
23668;SDS011;12011;47.422;15.018;2023-08-06T10:56:26;0.44;;;0.44;;
23668;SDS011;12011;47.422;15.018;2023-08-06T10:59:00;0.49;;;0.49;;
23668;SDS011;12011;47.422;15.018;2023-08-06T11:01:31;0.37;;;0.37;;
23668;SDS011;12011;47.422;15.018;2023-08-06T11:04:05;0.45;;;0.44;;
23668;SDS011;12011;47.422;15.018;2023-08-06T11:06:42;0.51;;;0.51;;
23668;SDS011;12011;47.422;15.018;2023-08-06T11:09:13;0.42;;;0.41;;
23668;SDS011;12011;47.422;15.018;2023-08-06T11:11:43;0.47;;;0.47;;
23668;SDS011;12011;47.422;15.018;2023-08-06T11:14:26;0.47;;;0.47;;
23668;SDS011;12011;47.422;15.018;2023-08-06T11:16:59;0.44;;;0.44;;
23668;SDS011;12011;47.422;15.018;2023-08-06T11:19:31;0.48;;;0.48;;
23668;SDS011;12011;47.422;15.018;2023-08-06T11:22:23;0.50;;;0.50;;
23668;SDS011;12011;47.422;15.018;2023-08-06T11:25:04;0.43;;;0.43;;
23668;SDS011;12011;47.422;15.018;2023-08-06T11:27:38;0.53;;;0.53;;
23668;SDS011;12011;47.422;15.018;2023-08-06T11:30:15;0.54;;;0.53;;
23668;SDS011;12011;47.422;15.018;2023-08-06T11:32:47;0.49;;;0.49;;
23668;SDS011;12011;47.422;15.018;2023-08-06T11:35:21;0.53;;;0.53;;
23668;SDS011;12011;47.422;15.018;2023-08-06T11:37:55;0.43;;;0.43;;
23668;SDS011;12011;47.422;15.018;2023-08-06T11:40:25;0.46;;;0.46;;
23668;SDS011;12011;47.422;15.018;2023-08-06T11:42:55;0.47;;;0.47;;
23668;SDS011;12011;47.422;15.018;2023-08-06T11:45:29;0.52;;;0.51;;
23668;SDS011;12011;47.422;15.018;2023-08-06T11:47:59;0.48;;;0.48;;
23668;SDS011;12011;47.422;15.018;2023-08-06T11:50:31;0.62;;;0.62;;
23668;SDS011;12011;47.422;15.018;2023-08-06T11:53:06;0.49;;;0.49;;
23668;SDS011;12011;47.422;15.018;2023-08-06T11:55:35;0.44;;;0.43;;
23668;SDS011;12011;47.422;15.018;2023-08-06T11:58:09;0.48;;;0.47;;
23668;SDS011;12011;47.422;15.018;2023-08-06T12:00:43;0.61;;;0.60;;
23668;SDS011;12011;47.422;15.018;2023-08-06T12:03:13;0.64;;;0.63;;
23668;SDS011;12011;47.422;15.018;2023-08-06T12:05:53;0.50;;;0.50;;
23668;SDS011;12011;47.422;15.018;2023-08-06T12:08:27;0.37;;;0.37;;
23668;SDS011;12011;47.422;15.018;2023-08-06T12:10:57;0.37;;;0.37;;
23668;SDS011;12011;47.422;15.018;2023-08-06T12:13:27;0.46;;;0.45;;
23668;SDS011;12011;47.422;15.018;2023-08-06T12:16:00;0.47;;;0.46;;
23668;SDS011;12011;47.422;15.018;2023-08-06T12:18:32;0.45;;;0.44;;
23668;SDS011;12011;47.422;15.018;2023-08-06T12:21:02;0.43;;;0.42;;
23668;SDS011;12011;47.422;15.018;2023-08-06T12:23:33;0.41;;;0.41;;
23668;SDS011;12011;47.422;15.018;2023-08-06T12:26:03;0.28;;;0.28;;
23668;SDS011;12011;47.422;15.018;2023-08-06T12:28:32;0.43;;;0.43;;
23668;SDS011;12011;47.422;15.018;2023-08-06T12:31:05;0.44;;;0.44;;
23668;SDS011;12011;47.422;15.018;2023-08-06T12:33:38;0.52;;;0.51;;
23668;SDS011;12011;47.422;15.018;2023-08-06T12:36:10;0.47;;;0.46;;
23668;SDS011;12011;47.422;15.018;2023-08-06T12:38:43;0.45;;;0.44;;
23668;SDS011;12011;47.422;15.018;2023-08-06T12:41:13;0.40;;;0.39;;
23668;SDS011;12011;47.422;15.018;2023-08-06T12:43:47;0.39;;;0.38;;
23668;SDS011;12011;47.422;15.018;2023-08-06T12:46:20;0.46;;;0.45;;
23668;SDS011;12011;47.422;15.018;2023-08-06T12:48:54;0.34;;;0.33;;
23668;SDS011;12011;47.422;15.018;2023-08-06T12:51:27;0.35;;;0.34;;
23668;SDS011;12011;47.422;15.018;2023-08-06T12:53:59;0.27;;;0.27;;
23668;SDS011;12011;47.422;15.018;2023-08-06T12:56:31;0.43;;;0.42;;
23668;SDS011;12011;47.422;15.018;2023-08-06T12:59:03;0.28;;;0.27;;
23668;SDS011;12011;47.422;15.018;2023-08-06T13:01:36;0.40;;;0.39;;
23668;SDS011;12011;47.422;15.018;2023-08-06T13:04:06;0.37;;;0.36;;
23668;SDS011;12011;47.422;15.018;2023-08-06T13:06:37;0.30;;;0.30;;
23668;SDS011;12011;47.422;15.018;2023-08-06T13:09:08;0.29;;;0.28;;
23668;SDS011;12011;47.422;15.018;2023-08-06T13:11:38;0.37;;;0.36;;
23668;SDS011;12011;47.422;15.018;2023-08-06T13:14:12;0.26;;;0.26;;
23668;SDS011;12011;47.422;15.018;2023-08-06T13:16:46;0.27;;;0.26;;
23668;SDS011;12011;47.422;15.018;2023-08-06T13:19:17;0.30;;;0.29;;
23668;SDS011;12011;47.422;15.018;2023-08-06T13:21:59;0.23;;;0.23;;
23668;SDS011;12011;47.422;15.018;2023-08-06T13:24:32;0.22;;;0.22;;
23668;SDS011;12011;47.422;15.018;2023-08-06T13:27:03;0.32;;;0.31;;
23668;SDS011;12011;47.422;15.018;2023-08-06T13:29:35;0.61;;;0.61;;
23668;SDS011;12011;47.422;15.018;2023-08-06T13:32:08;0.39;;;0.38;;
23668;SDS011;12011;47.422;15.018;2023-08-06T13:34:37;0.21;;;0.21;;
23668;SDS011;12011;47.422;15.018;2023-08-06T13:37:07;0.31;;;0.30;;
23668;SDS011;12011;47.422;15.018;2023-08-06T13:39:37;0.29;;;0.29;;
23668;SDS011;12011;47.422;15.018;2023-08-06T13:42:07;0.24;;;0.24;;
23668;SDS011;12011;47.422;15.018;2023-08-06T13:44:37;0.40;;;0.39;;
23668;SDS011;12011;47.422;15.018;2023-08-06T13:47:09;0.52;;;0.51;;
23668;SDS011;12011;47.422;15.018;2023-08-06T13:49:38;0.39;;;0.38;;
23668;SDS011;12011;47.422;15.018;2023-08-06T13:52:08;0.25;;;0.24;;
23668;SDS011;12011;47.422;15.018;2023-08-06T13:54:39;0.24;;;0.24;;
23668;SDS011;12011;47.422;15.018;2023-08-06T13:57:08;0.23;;;0.23;;
23668;SDS011;12011;47.422;15.018;2023-08-06T13:59:38;0.21;;;0.21;;
23668;SDS011;12011;47.422;15.018;2023-08-06T14:02:11;0.23;;;0.23;;
23668;SDS011;12011;47.422;15.018;2023-08-06T14:04:41;0.24;;;0.23;;
23668;SDS011;12011;47.422;15.018;2023-08-06T14:07:11;0.21;;;0.20;;
23668;SDS011;12011;47.422;15.018;2023-08-06T14:09:41;0.22;;;0.22;;
23668;SDS011;12011;47.422;15.018;2023-08-06T14:12:10;0.23;;;0.23;;
23668;SDS011;12011;47.422;15.018;2023-08-06T14:14:40;0.16;;;0.16;;
23668;SDS011;12011;47.422;15.018;2023-08-06T14:17:12;0.27;;;0.27;;
23668;SDS011;12011;47.422;15.018;2023-08-06T14:19:42;0.33;;;0.33;;
23668;SDS011;12011;47.422;15.018;2023-08-06T14:22:12;0.27;;;0.27;;
23668;SDS011;12011;47.422;15.018;2023-08-06T14:24:42;0.29;;;0.29;;
23668;SDS011;12011;47.422;15.018;2023-08-06T14:27:12;0.21;;;0.21;;
23668;SDS011;12011;47.422;15.018;2023-08-06T14:29:42;0.24;;;0.24;;
23668;SDS011;12011;47.422;15.018;2023-08-06T14:32:15;0.23;;;0.22;;
23668;SDS011;12011;47.422;15.018;2023-08-06T14:34:48;0.24;;;0.24;;
23668;SDS011;12011;47.422;15.018;2023-08-06T14:37:18;0.18;;;0.18;;
23668;SDS011;12011;47.422;15.018;2023-08-06T14:39:49;0.14;;;0.14;;
23668;SDS011;12011;47.422;15.018;2023-08-06T14:42:19;0.19;;;0.19;;
23668;SDS011;12011;47.422;15.018;2023-08-06T14:44:49;0.14;;;0.14;;
23668;SDS011;12011;47.422;15.018;2023-08-06T14:47:22;0.15;;;0.15;;
23668;SDS011;12011;47.422;15.018;2023-08-06T14:49:52;0.28;;;0.28;;
23668;SDS011;12011;47.422;15.018;2023-08-06T14:52:21;0.19;;;0.19;;
23668;SDS011;12011;47.422;15.018;2023-08-06T14:54:51;0.17;;;0.17;;
23668;SDS011;12011;47.422;15.018;2023-08-06T14:57:21;0.14;;;0.14;;
23668;SDS011;12011;47.422;15.018;2023-08-06T14:59:54;0.16;;;0.16;;